sensor_id;sensor_type;location;lat;lon;timestamp;pressure;altitude;pressure_sealevel;temperature;humidity
40155;BME280;25875;48.202;16.334;2023-07-08T00:00:09;99635.72;;;21.61;44.22
40155;BME280;25875;48.202;16.334;2023-07-08T00:02:36;99627.56;;;21.43;44.76
40155;BME280;25875;48.202;16.334;2023-07-08T00:05:04;99621.31;;;21.42;44.98
40155;BME280;25875;48.202;16.334;2023-07-08T00:07:32;99613.47;;;21.12;45.55
40155;BME280;25875;48.202;16.334;2023-07-08T00:09:58;99636.41;;;21.26;45.56
40155;BME280;25875;48.202;16.334;2023-07-08T00:12:25;99636.81;;;21.40;44.94
40155;BME280;25875;48.202;16.334;2023-07-08T00:14:52;99627.34;;;21.27;45.58
40155;BME280;25875;48.202;16.334;2023-07-08T00:17:18;99632.13;;;21.33;45.68
40155;BME280;25875;48.202;16.334;2023-07-08T00:19:45;99631.75;;;21.18;46.02
40155;BME280;25875;48.202;16.334;2023-07-08T00:22:13;99644.81;;;21.13;46.16
40155;BME280;25875;48.202;16.334;2023-07-08T00:24:42;99638.88;;;21.09;46.57
40155;BME280;25875;48.202;16.334;2023-07-08T00:27:11;99648.22;;;21.15;46.02
40155;BME280;25875;48.202;16.334;2023-07-08T00:29:38;99646.66;;;21.12;46.19
40155;BME280;25875;48.202;16.334;2023-07-08T00:32:10;99647.25;;;21.06;46.47
40155;BME280;25875;48.202;16.334;2023-07-08T00:34:37;99639.00;;;21.08;46.12
40155;BME280;25875;48.202;16.334;2023-07-08T00:37:04;99639.00;;;21.18;45.38
40155;BME280;25875;48.202;16.334;2023-07-08T00:39:30;99644.97;;;21.11;45.48
40155;BME280;25875;48.202;16.334;2023-07-08T00:42:00;99638.84;;;21.00;45.79
40155;BME280;25875;48.202;16.334;2023-07-08T00:44:27;99639.13;;;20.97;45.76
40155;BME280;25875;48.202;16.334;2023-07-08T00:47:02;99624.38;;;21.01;45.73
40155;BME280;25875;48.202;16.334;2023-07-08T00:49:36;99617.28;;;21.00;45.97
40155;BME280;25875;48.202;16.334;2023-07-08T00:52:23;99624.69;;;20.88;46.59
40155;BME280;25875;48.202;16.334;2023-07-08T00:54:52;99624.97;;;20.95;46.38
40155;BME280;25875;48.202;16.334;2023-07-08T00:57:22;99600.75;;;20.75;46.24
40155;BME280;25875;48.202;16.334;2023-07-08T00:59:53;99616.03;;;20.94;46.31
40155;BME280;25875;48.202;16.334;2023-07-08T01:02:23;99616.19;;;20.73;46.76
40155;BME280;25875;48.202;16.334;2023-07-08T01:04:56;99554.28;;;20.35;46.60
40155;BME280;25875;48.202;16.334;2023-07-08T01:07:25;99620.16;;;20.60;47.30
40155;BME280;25875;48.202;16.334;2023-07-08T01:09:57;99570.16;;;20.28;47.24
40155;BME280;25875;48.202;16.334;2023-07-08T01:12:29;99616.34;;;20.53;46.95
40155;BME280;25875;48.202;16.334;2023-07-08T01:14:59;99617.34;;;20.61;46.55
40155;BME280;25875;48.202;16.334;2023-07-08T01:17:28;99616.06;;;20.65;46.64
40155;BME280;25875;48.202;16.334;2023-07-08T01:19:58;99627.41;;;20.59;46.36
40155;BME280;25875;48.202;16.334;2023-07-08T01:22:26;99619.75;;;20.55;45.90
40155;BME280;25875;48.202;16.334;2023-07-08T01:24:57;99618.19;;;20.52;46.01
40155;BME280;25875;48.202;16.334;2023-07-08T01:27:29;99606.41;;;20.53;45.35
40155;BME280;25875;48.202;16.334;2023-07-08T01:29:58;99609.53;;;20.48;45.60
40155;BME280;25875;48.202;16.334;2023-07-08T01:32:25;99615.19;;;20.45;45.49
40155;BME280;25875;48.202;16.334;2023-07-08T01:34:56;99612.94;;;20.50;46.16
40155;BME280;25875;48.202;16.334;2023-07-08T01:37:29;99616.34;;;20.62;46.28
40155;BME280;25875;48.202;16.334;2023-07-08T01:39:58;99607.28;;;20.54;46.43
40155;BME280;25875;48.202;16.334;2023-07-08T01:42:24;99606.97;;;20.37;46.54
40155;BME280;25875;48.202;16.334;2023-07-08T01:44:51;99606.66;;;20.21;47.17
40155;BME280;25875;48.202;16.334;2023-07-08T01:47:20;99604.56;;;20.34;46.97
40155;BME280;25875;48.202;16.334;2023-07-08T01:49:48;99604.44;;;20.36;46.66
40155;BME280;25875;48.202;16.334;2023-07-08T01:52:16;99611.09;;;20.32;46.83
40155;BME280;25875;48.202;16.334;2023-07-08T01:54:54;99602.25;;;20.10;47.32
40155;BME280;25875;48.202;16.334;2023-07-08T01:57:21;99602.38;;;20.09;47.33
40155;BME280;25875;48.202;16.334;2023-07-08T01:59:48;99598.00;;;20.08;47.49
40155;BME280;25875;48.202;16.334;2023-07-08T02:02:15;99597.41;;;20.04;47.60
40155;BME280;25875;48.202;16.334;2023-07-08T02:04:42;99589.91;;;19.98;47.74
40155;BME280;25875;48.202;16.334;2023-07-08T02:07:08;99592.47;;;20.00;47.95
40155;BME280;25875;48.202;16.334;2023-07-08T02:09:35;99593.28;;;19.91;48.23
40155;BME280;25875;48.202;16.334;2023-07-08T02:12:04;99590.03;;;19.97;48.14
40155;BME280;25875;48.202;16.334;2023-07-08T02:14:31;99594.72;;;19.95;48.20
40155;BME280;25875;48.202;16.334;2023-07-08T02:16:58;99589.03;;;19.88;48.14
40155;BME280;25875;48.202;16.334;2023-07-08T02:19:24;99591.94;;;19.75;48.14
40155;BME280;25875;48.202;16.334;2023-07-08T02:21:53;99584.44;;;19.79;48.08
40155;BME280;25875;48.202;16.334;2023-07-08T02:24:20;99582.69;;;19.99;47.69
40155;BME280;25875;48.202;16.334;2023-07-08T02:26:48;99575.16;;;19.83;47.75
40155;BME280;25875;48.202;16.334;2023-07-08T02:29:16;99579.75;;;19.71;48.08
40155;BME280;25875;48.202;16.334;2023-07-08T02:31:43;99581.00;;;19.58;48.21
40155;BME280;25875;48.202;16.334;2023-07-08T02:34:10;99575.16;;;19.83;47.86
40155;BME280;25875;48.202;16.334;2023-07-08T02:36:36;99573.94;;;19.66;47.96
40155;BME280;25875;48.202;16.334;2023-07-08T02:39:04;99565.75;;;19.68;48.43
40155;BME280;25875;48.202;16.334;2023-07-08T02:41:31;99570.25;;;19.67;48.40
40155;BME280;25875;48.202;16.334;2023-07-08T02:43:58;99572.66;;;19.61;48.28
40155;BME280;25875;48.202;16.334;2023-07-08T02:46:26;99574.34;;;19.62;48.30
40155;BME280;25875;48.202;16.334;2023-07-08T02:48:52;99575.03;;;19.54;48.27
40155;BME280;25875;48.202;16.334;2023-07-08T02:51:19;99576.84;;;19.44;48.74
40155;BME280;25875;48.202;16.334;2023-07-08T02:53:47;99574.72;;;19.47;48.58
40155;BME280;25875;48.202;16.334;2023-07-08T02:56:14;99574.19;;;19.53;47.47
40155;BME280;25875;48.202;16.334;2023-07-08T02:58:41;99578.13;;;19.49;47.58
40155;BME280;25875;48.202;16.334;2023-07-08T03:01:09;99587.63;;;19.53;47.15
40155;BME280;25875;48.202;16.334;2023-07-08T03:03:37;99591.00;;;19.46;47.69
40155;BME280;25875;48.202;16.334;2023-07-08T03:06:04;99588.44;;;19.44;47.90
40155;BME280;25875;48.202;16.334;2023-07-08T03:08:31;99578.84;;;19.51;47.99
40155;BME280;25875;48.202;16.334;2023-07-08T03:11:00;99585.41;;;19.38;48.89
40155;BME280;25875;48.202;16.334;2023-07-08T03:13:28;99581.81;;;19.48;48.50
40155;BME280;25875;48.202;16.334;2023-07-08T03:15:56;99587.72;;;19.42;48.87
40155;BME280;25875;48.202;16.334;2023-07-08T03:18:24;99583.66;;;19.48;48.73
40155;BME280;25875;48.202;16.334;2023-07-08T03:20:53;99587.00;;;19.40;48.95
40155;BME280;25875;48.202;16.334;2023-07-08T03:23:21;99595.25;;;19.48;48.71
40155;BME280;25875;48.202;16.334;2023-07-08T03:25:48;99593.16;;;19.31;49.65
40155;BME280;25875;48.202;16.334;2023-07-08T03:28:14;99589.69;;;19.40;49.56
40155;BME280;25875;48.202;16.334;2023-07-08T03:30:42;99606.88;;;19.28;50.18
40155;BME280;25875;48.202;16.334;2023-07-08T03:33:10;99601.03;;;19.23;50.21
40155;BME280;25875;48.202;16.334;2023-07-08T03:35:37;99528.31;;;18.64;49.89
40155;BME280;25875;48.202;16.334;2023-07-08T03:38:06;99601.94;;;19.33;49.48
40155;BME280;25875;48.202;16.334;2023-07-08T03:40:33;99609.00;;;19.34;49.65
40155;BME280;25875;48.202;16.334;2023-07-08T03:42:59;99613.81;;;19.31;49.50
40155;BME280;25875;48.202;16.334;2023-07-08T03:45:26;99616.50;;;19.10;50.27
40155;BME280;25875;48.202;16.334;2023-07-08T03:47:52;99615.66;;;19.09;50.18
40155;BME280;25875;48.202;16.334;2023-07-08T03:50:21;99619.53;;;19.16;49.83
40155;BME280;25875;48.202;16.334;2023-07-08T03:52:50;99625.63;;;18.98;50.58
40155;BME280;25875;48.202;16.334;2023-07-08T03:55:19;99619.66;;;19.15;50.11
40155;BME280;25875;48.202;16.334;2023-07-08T03:57:46;99622.81;;;18.99;50.24
40155;BME280;25875;48.202;16.334;2023-07-08T04:00:13;99632.97;;;18.96;50.75
40155;BME280;25875;48.202;16.334;2023-07-08T04:02:41;99614.34;;;19.04;50.89
40155;BME280;25875;48.202;16.334;2023-07-08T04:05:11;99559.16;;;18.69;50.83
40155;BME280;25875;48.202;16.334;2023-07-08T04:07:39;99616.47;;;19.00;51.17
40155;BME280;25875;48.202;16.334;2023-07-08T04:10:07;99612.72;;;19.12;50.69
40155;BME280;25875;48.202;16.334;2023-07-08T04:12:35;99627.72;;;19.15;50.63
40155;BME280;25875;48.202;16.334;2023-07-08T04:15:02;99619.13;;;19.21;50.43
40155;BME280;25875;48.202;16.334;2023-07-08T04:17:29;99630.59;;;19.23;50.85
40155;BME280;25875;48.202;16.334;2023-07-08T04:19:56;99624.69;;;19.29;50.89
40155;BME280;25875;48.202;16.334;2023-07-08T04:22:23;99630.19;;;19.28;50.93
40155;BME280;25875;48.202;16.334;2023-07-08T04:24:50;99639.56;;;19.12;51.37
40155;BME280;25875;48.202;16.334;2023-07-08T04:27:17;99627.25;;;19.31;50.44
40155;BME280;25875;48.202;16.334;2023-07-08T04:29:45;99635.16;;;19.32;50.70
40155;BME280;25875;48.202;16.334;2023-07-08T04:32:12;99627.91;;;19.23;50.97
40155;BME280;25875;48.202;16.334;2023-07-08T04:34:38;99631.97;;;19.17;51.43
40155;BME280;25875;48.202;16.334;2023-07-08T04:37:05;99624.94;;;19.26;51.62
40155;BME280;25875;48.202;16.334;2023-07-08T04:39:32;99626.66;;;19.27;51.58
40155;BME280;25875;48.202;16.334;2023-07-08T04:41:59;99619.75;;;19.34;51.27
40155;BME280;25875;48.202;16.334;2023-07-08T04:44:25;99624.69;;;19.29;51.56
40155;BME280;25875;48.202;16.334;2023-07-08T04:46:55;99622.66;;;19.42;50.66
40155;BME280;25875;48.202;16.334;2023-07-08T04:49:23;99628.34;;;19.49;50.41
40155;BME280;25875;48.202;16.334;2023-07-08T04:51:57;99635.63;;;19.37;50.51
40155;BME280;25875;48.202;16.334;2023-07-08T04:54:24;99624.38;;;19.43;51.00
40155;BME280;25875;48.202;16.334;2023-07-08T04:56:50;99627.81;;;19.55;50.25
40155;BME280;25875;48.202;16.334;2023-07-08T04:59:21;99626.25;;;19.52;50.37
40155;BME280;25875;48.202;16.334;2023-07-08T05:01:48;99624.13;;;19.56;50.74
40155;BME280;25875;48.202;16.334;2023-07-08T05:04:18;99628.13;;;19.62;50.70
40155;BME280;25875;48.202;16.334;2023-07-08T05:06:45;99632.38;;;19.64;51.11
40155;BME280;25875;48.202;16.334;2023-07-08T05:09:11;99633.38;;;19.63;50.70
40155;BME280;25875;48.202;16.334;2023-07-08T05:11:38;99632.81;;;19.69;50.44
40155;BME280;25875;48.202;16.334;2023-07-08T05:14:05;99632.69;;;19.71;50.45
40155;BME280;25875;48.202;16.334;2023-07-08T05:16:34;99557.50;;;19.29;49.94
40155;BME280;25875;48.202;16.334;2023-07-08T05:19:01;99616.41;;;19.72;50.54
40155;BME280;25875;48.202;16.334;2023-07-08T05:21:30;99625.19;;;19.74;49.95
40155;BME280;25875;48.202;16.334;2023-07-08T05:23:59;99604.38;;;19.67;50.31
40155;BME280;25875;48.202;16.334;2023-07-08T05:26:25;99622.72;;;19.82;49.79
40155;BME280;25875;48.202;16.334;2023-07-08T05:28:52;99620.03;;;19.82;49.67
40155;BME280;25875;48.202;16.334;2023-07-08T05:31:19;99618.63;;;19.88;48.17
40155;BME280;25875;48.202;16.334;2023-07-08T05:33:45;99618.38;;;20.01;48.36
40155;BME280;25875;48.202;16.334;2023-07-08T05:36:12;99619.66;;;20.06;48.62
40155;BME280;25875;48.202;16.334;2023-07-08T05:38:40;99620.38;;;20.08;47.82
40155;BME280;25875;48.202;16.334;2023-07-08T05:41:07;99619.09;;;20.12;47.21
40155;BME280;25875;48.202;16.334;2023-07-08T05:43:34;99622.34;;;20.06;46.47
40155;BME280;25875;48.202;16.334;2023-07-08T05:46:01;99624.53;;;20.22;46.49
40155;BME280;25875;48.202;16.334;2023-07-08T05:48:28;99626.81;;;20.27;46.34
40155;BME280;25875;48.202;16.334;2023-07-08T05:50:55;99621.56;;;20.35;45.00
40155;BME280;25875;48.202;16.334;2023-07-08T05:53:22;99613.06;;;20.39;45.58
40155;BME280;25875;48.202;16.334;2023-07-08T05:55:50;99617.88;;;20.36;44.92
40155;BME280;25875;48.202;16.334;2023-07-08T05:58:17;99626.13;;;20.44;45.34
40155;BME280;25875;48.202;16.334;2023-07-08T06:00:44;99616.63;;;20.40;45.12
40155;BME280;25875;48.202;16.334;2023-07-08T06:03:11;99612.22;;;20.48;45.48
40155;BME280;25875;48.202;16.334;2023-07-08T06:05:38;99614.78;;;20.50;45.92
40155;BME280;25875;48.202;16.334;2023-07-08T06:08:06;99619.88;;;20.53;45.99
40155;BME280;25875;48.202;16.334;2023-07-08T06:10:33;99546.03;;;20.07;45.93
40155;BME280;25875;48.202;16.334;2023-07-08T06:13:02;99606.28;;;20.64;45.67
40155;BME280;25875;48.202;16.334;2023-07-08T06:15:28;99605.28;;;20.65;45.61
40155;BME280;25875;48.202;16.334;2023-07-08T06:17:55;99614.06;;;20.67;46.00
40155;BME280;25875;48.202;16.334;2023-07-08T06:20:26;99581.63;;;20.49;45.81
40155;BME280;25875;48.202;16.334;2023-07-08T06:22:53;99611.94;;;20.71;45.12
40155;BME280;25875;48.202;16.334;2023-07-08T06:25:20;99614.34;;;20.74;45.60
40155;BME280;25875;48.202;16.334;2023-07-08T06:27:46;99613.50;;;20.73;45.38
40155;BME280;25875;48.202;16.334;2023-07-08T06:30:15;99605.00;;;20.68;45.44
40155;BME280;25875;48.202;16.334;2023-07-08T06:32:41;99609.25;;;20.80;45.41
40155;BME280;25875;48.202;16.334;2023-07-08T06:35:08;99617.31;;;20.80;44.81
40155;BME280;25875;48.202;16.334;2023-07-08T06:37:35;99617.59;;;20.77;44.83
40155;BME280;25875;48.202;16.334;2023-07-08T06:40:02;99612.94;;;20.79;44.69
40155;BME280;25875;48.202;16.334;2023-07-08T06:42:29;99609.53;;;20.77;44.98
40155;BME280;25875;48.202;16.334;2023-07-08T06:44:56;99612.63;;;20.82;45.02
40155;BME280;25875;48.202;16.334;2023-07-08T06:47:24;99609.22;;;20.90;45.27
40155;BME280;25875;48.202;16.334;2023-07-08T06:49:51;99595.31;;;20.95;44.96
40155;BME280;25875;48.202;16.334;2023-07-08T06:52:17;99596.03;;;20.97;45.05
40155;BME280;25875;48.202;16.334;2023-07-08T06:54:44;99591.06;;;21.02;45.09
40155;BME280;25875;48.202;16.334;2023-07-08T06:57:10;99589.91;;;21.14;44.70
40155;BME280;25875;48.202;16.334;2023-07-08T06:59:38;99596.44;;;21.21;44.59
40155;BME280;25875;48.202;16.334;2023-07-08T07:02:05;99598.53;;;21.27;44.68
40155;BME280;25875;48.202;16.334;2023-07-08T07:04:33;99591.84;;;21.31;44.50
40155;BME280;25875;48.202;16.334;2023-07-08T07:07:01;99589.97;;;21.41;44.14
40155;BME280;25875;48.202;16.334;2023-07-08T07:09:27;99582.63;;;21.34;43.78
40155;BME280;25875;48.202;16.334;2023-07-08T07:11:54;99585.88;;;21.37;43.73
40155;BME280;25875;48.202;16.334;2023-07-08T07:16:47;99407.47;;;20.50;44.24
40155;BME280;25875;48.202;16.334;2023-07-08T07:19:14;99585.69;;;21.76;43.69
40155;BME280;25875;48.202;16.334;2023-07-08T07:21:42;99583.31;;;22.00;43.96
40155;BME280;25875;48.202;16.334;2023-07-08T07:24:09;99587.72;;;22.19;44.64
40155;BME280;25875;48.202;16.334;2023-07-08T07:26:37;99583.50;;;22.34;42.34
40155;BME280;25875;48.202;16.334;2023-07-08T07:29:04;99594.50;;;22.23;43.09
40155;BME280;25875;48.202;16.334;2023-07-08T07:31:30;99594.31;;;22.52;42.81
40155;BME280;25875;48.202;16.334;2023-07-08T07:33:58;99592.22;;;22.82;41.89
40155;BME280;25875;48.202;16.334;2023-07-08T07:36:25;99588.81;;;22.97;42.02
40155;BME280;25875;48.202;16.334;2023-07-08T07:38:53;99593.81;;;22.66;42.19
40155;BME280;25875;48.202;16.334;2023-07-08T07:41:20;99590.16;;;22.76;42.24
40155;BME280;25875;48.202;16.334;2023-07-08T07:43:47;99576.78;;;23.18;41.34
40155;BME280;25875;48.202;16.334;2023-07-08T07:46:14;99574.53;;;23.31;41.06
40155;BME280;25875;48.202;16.334;2023-07-08T07:48:40;99579.00;;;23.48;40.59
40155;BME280;25875;48.202;16.334;2023-07-08T07:51:08;99585.47;;;23.55;39.73
40155;BME280;25875;48.202;16.334;2023-07-08T07:53:36;99581.75;;;23.56;39.97
40155;BME280;25875;48.202;16.334;2023-07-08T07:56:05;99589.72;;;23.66;40.27
40155;BME280;25875;48.202;16.334;2023-07-08T07:58:32;99581.34;;;23.85;40.09
40155;BME280;25875;48.202;16.334;2023-07-08T08:01:00;99585.16;;;24.00;40.08
40155;BME280;25875;48.202;16.334;2023-07-08T08:03:27;99586.19;;;24.08;39.77
40155;BME280;25875;48.202;16.334;2023-07-08T08:05:54;99588.56;;;24.11;40.21
40155;BME280;25875;48.202;16.334;2023-07-08T08:08:21;99594.72;;;24.37;39.57
40155;BME280;25875;48.202;16.334;2023-07-08T08:10:48;99578.81;;;24.42;39.83
40155;BME280;25875;48.202;16.334;2023-07-08T08:13:16;99305.19;;;22.96;39.34
40155;BME280;25875;48.202;16.334;2023-07-08T08:15:43;99576.66;;;24.78;39.71
40155;BME280;25875;48.202;16.334;2023-07-08T08:18:10;99576.47;;;25.04;39.11
40155;BME280;25875;48.202;16.334;2023-07-08T08:20:37;99580.53;;;25.08;38.78
40155;BME280;25875;48.202;16.334;2023-07-08T08:23:05;99574.78;;;24.79;38.60
40155;BME280;25875;48.202;16.334;2023-07-08T08:25:32;99574.75;;;24.95;38.25
40155;BME280;25875;48.202;16.334;2023-07-08T08:27:59;99574.59;;;25.13;38.67
40155;BME280;25875;48.202;16.334;2023-07-08T08:30:27;99578.34;;;25.04;38.25
40155;BME280;25875;48.202;16.334;2023-07-08T08:32:53;99573.06;;;25.35;37.73
40155;BME280;25875;48.202;16.334;2023-07-08T08:35:20;99570.97;;;25.53;37.20
40155;BME280;25875;48.202;16.334;2023-07-08T08:37:47;99573.72;;;25.37;37.74
40155;BME280;25875;48.202;16.334;2023-07-08T08:40:16;99507.00;;;24.95;37.79
40155;BME280;25875;48.202;16.334;2023-07-08T08:42:46;99572.63;;;25.62;35.80
40155;BME280;25875;48.202;16.334;2023-07-08T08:45:19;99567.34;;;25.69;36.27
40155;BME280;25875;48.202;16.334;2023-07-08T08:47:50;99516.19;;;25.49;36.12
40155;BME280;25875;48.202;16.334;2023-07-08T08:50:26;99573.47;;;26.02;36.49
40155;BME280;25875;48.202;16.334;2023-07-08T08:52:55;99573.72;;;25.84;35.19
40155;BME280;25875;48.202;16.334;2023-07-08T08:55:24;99529.50;;;25.67;35.84
40155;BME280;25875;48.202;16.334;2023-07-08T08:57:57;99560.66;;;25.79;36.52
40155;BME280;25875;48.202;16.334;2023-07-08T09:00:30;99561.16;;;25.83;36.97
40155;BME280;25875;48.202;16.334;2023-07-08T09:03:03;99541.28;;;26.21;36.27
40155;BME280;25875;48.202;16.334;2023-07-08T09:05:33;99549.47;;;26.13;35.95
40155;BME280;25875;48.202;16.334;2023-07-08T09:08:04;99544.66;;;26.23;35.17
40155;BME280;25875;48.202;16.334;2023-07-08T09:10:44;99484.34;;;25.74;35.98
40155;BME280;25875;48.202;16.334;2023-07-08T09:13:16;99539.56;;;25.89;36.36
40155;BME280;25875;48.202;16.334;2023-07-08T09:15:46;99540.16;;;25.77;36.37
40155;BME280;25875;48.202;16.334;2023-07-08T09:18:20;99537.44;;;25.77;36.78
40155;BME280;25875;48.202;16.334;2023-07-08T09:20:52;99551.41;;;26.28;35.84
40155;BME280;25875;48.202;16.334;2023-07-08T09:23:23;99542.03;;;26.53;34.34
40155;BME280;25875;48.202;16.334;2023-07-08T09:25:54;99542.88;;;26.53;34.65
40155;BME280;25875;48.202;16.334;2023-07-08T09:28:35;99548.03;;;26.71;34.53
40155;BME280;25875;48.202;16.334;2023-07-08T09:31:06;99545.59;;;26.76;34.76
40155;BME280;25875;48.202;16.334;2023-07-08T09:33:37;99533.44;;;26.87;35.35
40155;BME280;25875;48.202;16.334;2023-07-08T09:36:16;99517.72;;;27.12;34.82
40155;BME280;25875;48.202;16.334;2023-07-08T09:38:46;99521.03;;;27.37;34.07
40155;BME280;25875;48.202;16.334;2023-07-08T09:41:13;99523.38;;;27.40;34.01
40155;BME280;25875;48.202;16.334;2023-07-08T09:43:40;99524.31;;;27.47;33.25
40155;BME280;25875;48.202;16.334;2023-07-08T09:46:12;99515.38;;;27.53;33.51
40155;BME280;25875;48.202;16.334;2023-07-08T09:48:40;99513.78;;;27.73;33.95
40155;BME280;25875;48.202;16.334;2023-07-08T09:51:08;99507.69;;;27.86;33.55
40155;BME280;25875;48.202;16.334;2023-07-08T09:53:36;99502.97;;;27.80;34.11
40155;BME280;25875;48.202;16.334;2023-07-08T09:56:04;99501.84;;;27.89;33.58
40155;BME280;25875;48.202;16.334;2023-07-08T09:58:34;99506.00;;;27.56;33.21
40155;BME280;25875;48.202;16.334;2023-07-08T10:01:09;99505.25;;;27.62;33.15
40155;BME280;25875;48.202;16.334;2023-07-08T10:03:37;99467.88;;;27.56;34.87
40155;BME280;25875;48.202;16.334;2023-07-08T10:06:14;99498.69;;;27.71;35.62
40155;BME280;25875;48.202;16.334;2023-07-08T10:08:44;99495.09;;;26.97;36.52
40155;BME280;25875;48.202;16.334;2023-07-08T10:11:18;99496.81;;;27.27;37.97
40155;BME280;25875;48.202;16.334;2023-07-08T10:13:50;99434.31;;;27.19;38.02
40155;BME280;25875;48.202;16.334;2023-07-08T10:16:23;99441.25;;;27.51;34.71
40155;BME280;25875;48.202;16.334;2023-07-08T10:18:51;99496.03;;;27.77;36.06
40155;BME280;25875;48.202;16.334;2023-07-08T10:21:28;99478.84;;;27.92;34.28
40155;BME280;25875;48.202;16.334;2023-07-08T10:24:12;99485.41;;;27.83;34.91
40155;BME280;25875;48.202;16.334;2023-07-08T10:26:49;99486.50;;;27.37;33.39
40155;BME280;25875;48.202;16.334;2023-07-08T10:29:31;99481.59;;;27.62;33.82
40155;BME280;25875;48.202;16.334;2023-07-08T10:32:06;99480.53;;;27.93;33.52
40155;BME280;25875;48.202;16.334;2023-07-08T10:34:40;99476.69;;;27.87;31.75
40155;BME280;25875;48.202;16.334;2023-07-08T10:37:19;99483.91;;;27.80;32.09
40155;BME280;25875;48.202;16.334;2023-07-08T10:39:55;99470.41;;;27.87;33.42
40155;BME280;25875;48.202;16.334;2023-07-08T10:42:34;99471.78;;;28.19;33.17
40155;BME280;25875;48.202;16.334;2023-07-08T10:45:10;99468.13;;;28.11;31.73
40155;BME280;25875;48.202;16.334;2023-07-08T10:47:57;99475.78;;;28.23;31.67
40155;BME280;25875;48.202;16.334;2023-07-08T10:50:35;99467.38;;;28.18;31.92
40155;BME280;25875;48.202;16.334;2023-07-08T10:53:33;99461.19;;;28.30;30.87
40155;BME280;25875;48.202;16.334;2023-07-08T10:56:07;99468.13;;;28.33;30.59
40155;BME280;25875;48.202;16.334;2023-07-08T10:58:52;99462.16;;;28.01;31.08
40155;BME280;25875;48.202;16.334;2023-07-08T11:01:32;99464.56;;;28.11;31.86
40155;BME280;25875;48.202;16.334;2023-07-08T11:04:23;99462.03;;;28.31;31.74
40155;BME280;25875;48.202;16.334;2023-07-08T11:06:57;99459.44;;;28.44;30.94
40155;BME280;25875;48.202;16.334;2023-07-08T11:09:30;99458.22;;;28.47;30.67
40155;BME280;25875;48.202;16.334;2023-07-08T11:12:07;99449.75;;;28.41;30.66
40155;BME280;25875;48.202;16.334;2023-07-08T11:14:42;99454.00;;;28.23;30.11
40155;BME280;25875;48.202;16.334;2023-07-08T11:17:16;99449.41;;;28.02;30.77
40155;BME280;25875;48.202;16.334;2023-07-08T11:19:53;99447.28;;;27.83;31.36
40155;BME280;25875;48.202;16.334;2023-07-08T11:22:22;99443.88;;;27.95;30.39
40155;BME280;25875;48.202;16.334;2023-07-08T11:24:54;99454.25;;;28.06;30.26
40155;BME280;25875;48.202;16.334;2023-07-08T11:27:25;99422.16;;;28.02;30.08
40155;BME280;25875;48.202;16.334;2023-07-08T11:29:55;99436.72;;;28.37;30.43
40155;BME280;25875;48.202;16.334;2023-07-08T11:32:26;99437.94;;;28.34;30.62
40155;BME280;25875;48.202;16.334;2023-07-08T11:34:55;99454.13;;;28.15;30.64
40155;BME280;25875;48.202;16.334;2023-07-08T11:37:24;99441.47;;;28.28;30.25
40155;BME280;25875;48.202;16.334;2023-07-08T11:39:58;99452.69;;;27.97;31.23
40155;BME280;25875;48.202;16.334;2023-07-08T11:42:33;99446.34;;;27.90;30.40
40155;BME280;25875;48.202;16.334;2023-07-08T11:45:07;99443.16;;;27.87;30.36
40155;BME280;25875;48.202;16.334;2023-07-08T11:47:38;99447.28;;;27.83;30.84
40155;BME280;25875;48.202;16.334;2023-07-08T11:50:14;99454.66;;;27.67;30.84
40155;BME280;25875;48.202;16.334;2023-07-08T11:52:51;99447.00;;;27.77;30.32
40155;BME280;25875;48.202;16.334;2023-07-08T11:55:24;99440.81;;;27.84;30.60
40155;BME280;25875;48.202;16.334;2023-07-08T11:57:55;99437.91;;;28.06;29.15
40155;BME280;25875;48.202;16.334;2023-07-08T12:00:24;99436.69;;;28.09;29.33
40155;BME280;25875;48.202;16.334;2023-07-08T12:02:54;99421.91;;;27.97;29.24
40155;BME280;25875;48.202;16.334;2023-07-08T12:05:32;99422.66;;;28.12;28.88
40155;BME280;25875;48.202;16.334;2023-07-08T12:08:00;99404.88;;;28.16;27.87
40155;BME280;25875;48.202;16.334;2023-07-08T12:10:33;99394.31;;;28.06;28.39
40155;BME280;25875;48.202;16.334;2023-07-08T12:13:01;99369.44;;;27.88;28.22
40155;BME280;25875;48.202;16.334;2023-07-08T12:15:29;99372.34;;;28.08;28.11
40155;BME280;25875;48.202;16.334;2023-07-08T12:18:00;99410.94;;;28.39;28.64
40155;BME280;25875;48.202;16.334;2023-07-08T12:20:29;99405.84;;;28.30;28.19
40155;BME280;25875;48.202;16.334;2023-07-08T12:22:56;99414.31;;;28.41;27.87
40155;BME280;25875;48.202;16.334;2023-07-08T12:25:27;99357.75;;;27.94;27.92
40155;BME280;25875;48.202;16.334;2023-07-08T12:27:55;99408.09;;;28.48;27.64
40155;BME280;25875;48.202;16.334;2023-07-08T12:30:22;99416.53;;;28.31;27.62
40155;BME280;25875;48.202;16.334;2023-07-08T12:32:50;99401.63;;;28.27;27.83
40155;BME280;25875;48.202;16.334;2023-07-08T12:35:22;99408.25;;;28.18;28.11
40155;BME280;25875;48.202;16.334;2023-07-08T12:37:51;99405.53;;;28.18;26.99
40155;BME280;25875;48.202;16.334;2023-07-08T12:40:20;99086.91;;;26.49;26.63
40155;BME280;25875;48.202;16.334;2023-07-08T12:42:47;99409.53;;;28.43;27.08
40155;BME280;25875;48.202;16.334;2023-07-08T12:45:19;99400.03;;;28.61;27.89
40155;BME280;25875;48.202;16.334;2023-07-08T12:47:46;99349.41;;;27.96;28.11
40155;BME280;25875;48.202;16.334;2023-07-08T12:50:14;99390.13;;;28.32;27.52
40155;BME280;25875;48.202;16.334;2023-07-08T12:52:43;99386.00;;;28.64;27.64
40155;BME280;25875;48.202;16.334;2023-07-08T12:55:10;99390.78;;;28.34;28.42
40155;BME280;25875;48.202;16.334;2023-07-08T12:57:38;99387.94;;;28.21;28.54
40155;BME280;25875;48.202;16.334;2023-07-08T13:00:11;99378.88;;;28.13;28.33
40155;BME280;25875;48.202;16.334;2023-07-08T13:02:43;99399.19;;;28.11;28.53